Time;durP1;ratioP1;P1;durP2;ratioP2;P2;SDS_P1;SDS_P2;PMS_P1;PMS_P2;Temp;Humidity;BMP_temperature;BMP_pressure;BME280_temperature;BME280_humidity;BME280_pressure;Samples;Min_cycle;Max_cycle;Signal;HPM_P1;HPM_P2
2022/10/01 00:00:51;;;;;;;4.88;3.85;;;13.00;99.90;;;;;;5045004;28;20013;-35
2022/10/01 00:03:17;;;;;;;3.92;3.30;;;12.90;99.90;;;;;;5046660;28;20056;-36
2022/10/01 00:05:43;;;;;;;3.90;3.60;;;12.90;99.90;;;;;;5047048;28;20101;-36
2022/10/01 00:08:09;;;;;;;4.85;3.47;;;12.90;99.90;;;;;;5046279;28;20037;-35
2022/10/01 00:10:39;;;;;;;3.90;3.60;;;12.90;99.90;;;;;;5047301;28;20021;-36
2022/10/01 00:13:05;;;;;;;3.38;3.08;;;12.90;99.90;;;;;;5047466;28;20051;-33
2022/10/01 00:15:31;;;;;;;4.20;3.80;;;12.90;99.90;;;;;;5046063;28;20024;-35
2022/10/01 00:17:57;;;;;;;4.68;3.70;;;12.80;99.90;;;;;;5047358;28;20029;-34
2022/10/01 00:20:22;;;;;;;4.72;3.97;;;12.80;99.90;;;;;;5047109;28;20029;-35
2022/10/01 00:22:48;;;;;;;3.58;3.28;;;12.80;99.90;;;;;;5046227;28;20542;-35
2022/10/01 00:25:13;;;;;;;4.30;3.92;;;12.70;99.90;;;;;;5047137;28;20040;-35
2022/10/01 00:27:43;;;;;;;4.13;3.70;;;12.70;99.90;;;;;;5046725;28;20032;-36
2022/10/01 00:30:09;;;;;;;3.97;3.47;;;12.70;99.90;;;;;;5046359;28;20041;-36
2022/10/01 00:32:35;;;;;;;4.53;3.45;;;12.70;99.90;;;;;;5046716;28;20064;-36
2022/10/01 00:35:08;;;;;;;3.67;2.88;;;12.70;99.90;;;;;;5046640;28;20667;-36
2022/10/01 00:37:36;;;;;;;5.10;4.00;;;12.70;99.90;;;;;;5046902;28;20033;-35
2022/10/01 00:40:05;;;;;;;4.18;3.45;;;12.70;99.90;;;;;;5027870;28;20116;-34
2022/10/01 00:42:31;;;;;;;5.32;4.05;;;12.70;99.90;;;;;;5040317;28;20487;-34
2022/10/01 00:45:01;;;;;;;4.10;3.65;;;12.60;99.90;;;;;;5047110;28;20558;-34
2022/10/01 00:47:56;;;;;;;3.78;3.47;;;12.60;99.90;;;;;;5046584;28;20036;-35
2022/10/01 00:50:27;;;;;;;3.80;3.50;;;12.60;99.90;;;;;;5025185;28;20033;-35
2022/10/01 00:52:58;;;;;;;4.35;3.78;;;12.60;99.90;;;;;;5041170;28;20048;-35
2022/10/01 00:55:38;;;;;;;4.07;3.67;;;12.60;99.90;;;;;;5046541;28;20036;-35
2022/10/01 00:58:04;;;;;;;3.88;3.47;;;12.60;99.90;;;;;;5046580;28;20080;-34
2022/10/01 01:00:30;;;;;;;3.88;3.55;;;12.50;99.90;;;;;;5045768;28;20040;-34
2022/10/01 01:02:56;;;;;;;4.82;4.05;;;12.60;99.90;;;;;;5046504;28;20362;-35
2022/10/01 01:05:22;;;;;;;4.28;3.88;;;12.50;99.90;;;;;;5045774;28;20044;-34
2022/10/01 01:07:51;;;;;;;4.20;3.80;;;12.50;99.90;;;;;;5046767;28;20461;-35
2022/10/01 01:10:28;;;;;;;4.30;3.88;;;12.50;99.90;;;;;;5045084;28;20099;-34
2022/10/01 01:13:00;;;;;;;3.83;3.45;;;12.50;99.90;;;;;;5046178;28;20027;-34
2022/10/01 01:15:38;;;;;;;3.65;3.35;;;12.50;99.90;;;;;;5046004;28;20071;-34
2022/10/01 01:18:17;;;;;;;3.45;3.10;;;12.50;99.90;;;;;;5045317;28;20048;-34
2022/10/01 01:20:49;;;;;;;4.88;4.38;;;12.50;99.90;;;;;;5046647;28;20543;-35
2022/10/01 01:23:15;;;;;;;5.50;3.35;;;12.50;99.90;;;;;;5045849;28;20092;-34
2022/10/01 01:26:03;;;;;;;4.28;3.58;;;12.50;99.90;;;;;;5045375;28;20033;-34
2022/10/01 01:28:30;;;;;;;3.83;3.53;;;12.50;99.90;;;;;;5045553;28;20029;-34
2022/10/01 01:31:02;;;;;;;3.80;3.40;;;12.40;99.90;;;;;;5047184;28;20024;-34
2022/10/01 01:33:31;;;;;;;4.90;4.00;;;12.40;99.90;;;;;;5045247;28;20447;-34
2022/10/01 01:36:15;;;;;;;5.78;3.85;;;12.40;99.90;;;;;;5046332;28;20040;-34
2022/10/01 01:39:08;;;;;;;4.70;3.53;;;12.30;99.90;;;;;;5045598;28;20437;-35
2022/10/01 01:41:38;;;;;;;3.40;3.10;;;12.40;99.90;;;;;;5045309;28;20396;-34
2022/10/01 01:44:09;;;;;;;4.43;3.38;;;12.40;99.90;;;;;;5045771;28;20040;-34
2022/10/01 01:46:39;;;;;;;4.18;3.28;;;12.40;99.90;;;;;;5045833;28;20027;-34
2022/10/01 01:49:05;;;;;;;3.28;2.97;;;12.40;99.90;;;;;;5045763;28;20032;-35
2022/10/01 01:51:46;;;;;;;3.80;3.42;;;12.40;99.90;;;;;;5045087;28;20510;-34
2022/10/01 01:54:12;;;;;;;6.07;3.25;;;12.40;99.90;;;;;;5044188;28;20029;-36
2022/10/01 01:56:37;;;;;;;4.35;3.00;;;12.40;99.90;;;;;;5046022;28;20250;-36
2022/10/01 01:59:04;;;;;;;3.47;3.05;;;12.40;99.90;;;;;;5045759;28;20033;-36
2022/10/01 02:01:38;;;;;;;3.28;2.97;;;12.40;99.90;;;;;;5044712;28;20416;-36
2022/10/01 02:04:20;;;;;;;3.40;3.10;;;12.40;99.90;;;;;;5045063;28;20052;-34
2022/10/01 02:07:10;;;;;;;4.28;2.92;;;12.40;99.90;;;;;;5035310;28;20864;-35
2022/10/01 02:09:49;;;;;;;6.20;3.10;;;12.30;99.90;;;;;;5045697;28;20091;-35
2022/10/01 02:12:53;;;;;;;2.95;2.63;;;12.30;99.90;;;;;;5045015;28;20132;-36
2022/10/01 02:15:35;;;;;;;3.17;2.88;;;12.30;99.90;;;;;;5044218;28;20106;-34
2022/10/01 02:18:10;;;;;;;2.60;2.40;;;12.30;99.90;;;;;;5045999;28;20036;-35
2022/10/01 02:20:44;;;;;;;2.63;2.42;;;12.30;99.90;;;;;;5044559;28;20060;-35
2022/10/01 02:23:14;;;;;;;2.45;2.22;;;12.20;99.90;;;;;;5044206;28;20044;-36
2022/10/01 02:25:47;;;;;;;2.33;2.13;;;12.30;99.90;;;;;;5045388;28;20025;-36
2022/10/01 02:28:17;;;;;;;;;;;12.20;99.90;;;;;;5044540;28;20033;-36
2022/10/01 02:30:43;;;;;;;2.33;2.13;;;12.20;99.90;;;;;;5044928;28;19915;-36
2022/10/01 02:33:12;;;;;;;2.53;2.05;;;12.20;99.90;;;;;;5044764;28;20048;-36
2022/10/01 02:35:40;;;;;;;2.00;1.80;;;12.20;99.90;;;;;;5044183;28;20013;-35
2022/10/01 02:38:08;;;;;;;2.50;2.30;;;12.20;99.90;;;;;;5044717;28;20064;-34
2022/10/01 02:40:38;;;;;;;2.88;1.92;;;12.20;99.90;;;;;;5045015;28;20021;-35
2022/10/01 02:43:09;;;;;;;2.58;2.25;;;12.20;99.90;;;;;;5044479;28;20437;-35
2022/10/01 02:45:39;;;;;;;2.20;2.00;;;12.20;99.90;;;;;;5044591;28;20021;-35
2022/10/01 02:48:08;;;;;;;1.60;1.50;;;12.20;99.90;;;;;;5045151;28;20044;-36
2022/10/01 02:50:43;;;;;;;1.70;1.60;;;12.20;99.90;;;;;;5043791;28;20013;-36
2022/10/01 02:53:24;;;;;;;1.70;1.60;;;12.20;99.90;;;;;;5033558;28;20082;-35
2022/10/01 02:55:50;;;;;;;1.70;1.60;;;12.20;99.90;;;;;;5044143;28;20060;-36
2022/10/01 02:58:18;;;;;;;1.90;1.52;;;12.30;99.90;;;;;;5044662;28;20432;-36
2022/10/01 03:00:43;;;;;;;1.30;1.20;;;12.20;99.90;;;;;;5044944;28;20017;-34
2022/10/01 03:03:09;;;;;;;1.63;1.50;;;12.20;99.90;;;;;;5043428;28;20798;-34
2022/10/01 03:05:35;;;;;;;1.42;1.23;;;12.20;99.90;;;;;;5045940;28;20064;-35
2022/10/01 03:08:00;;;;;;;1.88;1.45;;;12.20;99.90;;;;;;5044385;28;20037;-35
2022/10/01 03:10:26;;;;;;;1.02;1.02;;;12.30;99.90;;;;;;5044168;28;20107;-35
2022/10/01 03:12:51;;;;;;;1.25;1.15;;;12.20;99.90;;;;;;5044315;28;20435;-36
2022/10/01 03:15:18;;;;;;;1.35;1.20;;;12.30;99.90;;;;;;5044403;28;20482;-36
2022/10/01 03:17:49;;;;;;;1.20;1.10;;;12.30;99.90;;;;;;5044150;28;20048;-35
2022/10/01 03:20:14;;;;;;;1.33;1.10;;;12.30;99.90;;;;;;5044797;28;20036;-35
2022/10/01 03:22:43;;;;;;;1.33;1.20;;;12.30;99.90;;;;;;5043821;28;20017;-35
2022/10/01 03:25:08;;;;;;;1.33;1.13;;;12.20;99.90;;;;;;5032511;28;20076;-35
2022/10/01 03:27:34;;;;;;;1.48;1.00;;;12.30;99.90;;;;;;5034942;28;20389;-35
2022/10/01 03:29:59;;;;;;;1.00;1.00;;;12.30;99.90;;;;;;5044849;28;20029;-35
2022/10/01 03:32:25;;;;;;;0.90;0.90;;;12.30;99.90;;;;;;5042779;28;20168;-35
2022/10/01 03:34:50;;;;;;;1.33;1.23;;;12.30;99.90;;;;;;5046108;28;20025;-36
2022/10/01 03:37:16;;;;;;;1.15;1.05;;;12.30;99.90;;;;;;5047969;28;20097;-35
2022/10/01 03:39:41;;;;;;;1.13;1.02;;;12.30;99.90;;;;;;5045824;28;20559;-35
2022/10/01 03:42:07;;;;;;;1.08;1.00;;;12.30;99.90;;;;;;5042781;28;20033;-37
2022/10/01 03:44:33;;;;;;;1.35;0.98;;;12.30;99.90;;;;;;5037116;28;20021;-36
2022/10/01 03:46:58;;;;;;;1.10;1.00;;;12.30;99.90;;;;;;5047500;28;20459;-35
2022/10/01 03:49:24;;;;;;;0.90;0.90;;;12.30;99.90;;;;;;5047451;28;20029;-36
2022/10/01 03:51:49;;;;;;;1.05;0.82;;;12.30;99.90;;;;;;5047646;28;20021;-36
2022/10/01 03:54:15;;;;;;;1.00;0.90;;;12.30;99.90;;;;;;5046216;28;20098;-37
2022/10/01 03:56:41;;;;;;;0.93;0.90;;;12.30;99.90;;;;;;5048068;28;20116;-37
2022/10/01 03:59:10;;;;;;;0.93;0.80;;;12.30;99.90;;;;;;5046770;28;20021;-34
2022/10/01 04:01:37;;;;;;;1.00;0.90;;;12.40;99.90;;;;;;5048725;28;20029;-35
2022/10/01 04:04:03;;;;;;;0.70;0.70;;;12.40;99.90;;;;;;5047357;28;20049;-33
2022/10/01 04:06:29;;;;;;;1.20;1.10;;;12.40;99.90;;;;;;5046129;28;20032;-35
2022/10/01 04:08:54;;;;;;;1.00;1.00;;;12.40;99.90;;;;;;5047121;28;20021;-35
2022/10/01 04:11:20;;;;;;;1.00;0.90;;;12.40;99.90;;;;;;5047291;28;20427;-35
2022/10/01 04:13:46;;;;;;;1.63;1.00;;;12.50;99.90;;;;;;5046771;28;20074;-36
2022/10/01 04:16:12;;;;;;;1.25;0.90;;;12.50;99.90;;;;;;5046576;28;20029;-35
2022/10/01 04:18:38;;;;;;;1.08;1.00;;;12.50;99.90;;;;;;5047441;28;20477;-35
2022/10/01 04:21:03;;;;;;;1.02;0.90;;;12.60;99.90;;;;;;5046756;28;20028;-34
2022/10/01 04:23:29;;;;;;;0.80;0.80;;;12.60;99.90;;;;;;5047106;28;20115;-34
2022/10/01 04:25:59;;;;;;;0.95;0.95;;;12.60;99.90;;;;;;5047420;28;20013;-35
2022/10/01 04:28:24;;;;;;;0.82;0.82;;;12.60;99.90;;;;;;5045476;28;20032;-34
2022/10/01 04:31:23;;;;;;;0.70;0.70;;;12.70;99.90;;;;;;5046941;28;20021;-34
2022/10/01 04:33:35;;;;;;;1.88;0.82;;;12.70;99.90;;;;;;5047012;28;20045;-34
2022/10/01 04:36:01;;;;;;;1.13;0.82;;;12.70;99.90;;;;;;5045800;28;20200;-35
2022/10/01 04:38:26;;;;;;;0.90;0.80;;;12.70;99.90;;;;;;5046857;28;20021;-34
2022/10/01 04:40:52;;;;;;;0.70;0.70;;;12.70;99.90;;;;;;5046207;28;20088;-34
2022/10/01 04:43:17;;;;;;;0.80;0.80;;;12.80;99.90;;;;;;5045823;28;20607;-35
2022/10/01 04:45:43;;;;;;;0.82;0.82;;;12.80;99.90;;;;;;5046152;28;20033;-35
2022/10/01 04:48:09;;;;;;;1.27;0.85;;;12.80;99.90;;;;;;5045739;28;20023;-35
2022/10/01 04:50:34;;;;;;;1.52;0.70;;;12.80;99.90;;;;;;5045974;28;20385;-35
2022/10/01 04:53:00;;;;;;;1.10;1.00;;;12.80;99.90;;;;;;5046155;28;20503;-35
2022/10/01 04:55:25;;;;;;;0.75;0.75;;;12.80;99.90;;;;;;5045382;28;20060;-35
2022/10/01 04:57:51;;;;;;;0.90;0.90;;;12.80;99.90;;;;;;5046808;28;20059;-35
2022/10/01 05:00:20;;;;;;;0.90;0.90;;;12.80;99.90;;;;;;5045614;28;20471;-34
2022/10/01 05:02:48;;;;;;;0.88;0.82;;;12.90;99.90;;;;;;5044975;28;20548;-34
2022/10/01 05:05:14;;;;;;;1.42;0.68;;;12.90;99.90;;;;;;5045167;28;20388;-34
2022/10/01 05:07:40;;;;;;;0.98;0.80;;;12.90;99.90;;;;;;5046013;28;20032;-35
2022/10/01 05:10:08;;;;;;;0.80;0.80;;;12.90;99.90;;;;;;5045123;28;20106;-35
2022/10/01 05:12:34;;;;;;;0.82;0.82;;;12.90;99.90;;;;;;5046458;28;20033;-35
2022/10/01 05:14:59;;;;;;;1.90;0.90;;;13.00;99.90;;;;;;5046265;28;20511;-35
2022/10/01 05:17:25;;;;;;;0.68;0.68;;;13.00;99.90;;;;;;5044138;28;20013;-35
2022/10/01 05:19:51;;;;;;;1.10;1.00;;;13.00;99.90;;;;;;5045877;28;20427;-35
2022/10/01 05:22:17;;;;;;;0.77;0.77;;;13.00;99.90;;;;;;5045424;28;20047;-36
2022/10/01 05:24:43;;;;;;;1.23;1.13;;;13.00;99.90;;;;;;5045583;28;20127;-35
2022/10/01 05:27:12;;;;;;;0.90;0.90;;;13.10;99.90;;;;;;5045351;28;20459;-35
2022/10/01 05:29:41;;;;;;;1.38;0.90;;;13.10;99.90;;;;;;5046158;28;20029;-35
2022/10/01 05:32:08;;;;;;;1.30;1.20;;;13.10;99.90;;;;;;5045012;28;20033;-35
2022/10/01 05:34:34;;;;;;;1.00;1.00;;;13.10;99.90;;;;;;5045502;28;20029;-37
2022/10/01 05:36:59;;;;;;;1.25;1.20;;;13.20;99.90;;;;;;5046084;28;20032;-36
2022/10/01 05:39:25;;;;;;;2.20;1.65;;;13.10;99.90;;;;;;5044515;28;20024;-35
2022/10/01 05:41:54;;;;;;;1.30;1.20;;;13.20;99.90;;;;;;5045456;28;20031;-36
2022/10/01 05:44:20;;;;;;;1.73;1.63;;;13.20;99.90;;;;;;5044769;28;20106;-36
2022/10/01 05:46:46;;;;;;;1.88;1.40;;;13.20;99.90;;;;;;5044758;28;20036;-36
2022/10/01 05:49:11;;;;;;;1.65;1.50;;;13.20;99.90;;;;;;5044383;28;20017;-36
2022/10/01 05:51:37;;;;;;;1.30;1.20;;;13.20;99.90;;;;;;5044748;28;20013;-34
2022/10/01 05:54:03;;;;;;;1.40;1.30;;;13.20;99.90;;;;;;5044897;28;20060;-35
2022/10/01 05:56:29;;;;;;;1.48;1.30;;;13.20;99.90;;;;;;5044597;28;20032;-36
2022/10/01 05:58:54;;;;;;;0.90;0.90;;;13.30;99.90;;;;;;5043130;28;20029;-36
2022/10/01 06:01:20;;;;;;;1.40;1.30;;;13.30;99.90;;;;;;5044187;28;20036;-36
2022/10/01 06:03:49;;;;;;;1.17;1.10;;;13.30;99.90;;;;;;5044417;28;20136;-35
2022/10/01 06:06:22;;;;;;;1.60;1.50;;;13.30;99.90;;;;;;5043450;28;20373;-36
2022/10/01 06:08:48;;;;;;;1.70;1.60;;;13.40;99.90;;;;;;5044513;28;20024;-36
2022/10/01 06:11:15;;;;;;;1.52;1.42;;;13.40;99.90;;;;;;5044823;28;20044;-34
2022/10/01 06:13:43;;;;;;;1.60;1.50;;;13.40;99.90;;;;;;5044334;28;20180;-34
2022/10/01 06:16:12;;;;;;;1.60;1.50;;;13.40;99.90;;;;;;5044172;28;20027;-35
2022/10/01 06:18:38;;;;;;;2.03;1.80;;;13.40;99.90;;;;;;5044423;28;20033;-34
2022/10/01 06:21:04;;;;;;;1.63;1.52;;;13.50;99.90;;;;;;5044333;28;20076;-33
2022/10/01 06:23:29;;;;;;;2.00;1.77;;;13.50;99.90;;;;;;5043671;28;20037;-35
2022/10/01 06:25:58;;;;;;;3.47;1.70;;;13.40;99.90;;;;;;5044828;28;20546;-34
2022/10/01 06:28:24;;;;;;;2.22;2.03;;;13.50;99.90;;;;;;5043043;28;20054;-34
2022/10/01 06:30:49;;;;;;;2.40;2.30;;;13.40;99.90;;;;;;5044065;28;20033;-35
2022/10/01 06:33:16;;;;;;;2.17;1.90;;;13.40;99.90;;;;;;5043811;28;20028;-35
2022/10/01 06:35:44;;;;;;;2.15;2.00;;;13.40;99.90;;;;;;5043777;28;20423;-34
2022/10/01 06:38:10;;;;;;;2.20;2.10;;;13.40;99.90;;;;;;5043758;28;20060;-36
2022/10/01 06:40:38;;;;;;;2.90;2.70;;;13.40;99.90;;;;;;5044436;28;20074;-36
2022/10/01 06:43:06;;;;;;;2.63;2.42;;;13.40;99.90;;;;;;5043673;28;20029;-37
2022/10/01 06:45:36;;;;;;;3.15;2.50;;;13.40;99.90;;;;;;5044931;28;20021;-36
2022/10/01 06:48:02;;;;;;;2.65;2.45;;;13.40;99.90;;;;;;5044001;28;20032;-36
2022/10/01 06:50:29;;;;;;;2.75;2.55;;;13.50;99.90;;;;;;5042751;28;20013;-36
2022/10/01 06:52:57;;;;;;;3.00;2.70;;;13.50;99.90;;;;;;5044577;28;20356;-35
2022/10/01 06:55:25;;;;;;;3.20;3.00;;;13.60;99.90;;;;;;5042658;28;20009;-34
2022/10/01 06:57:59;;;;;;;3.30;3.10;;;13.70;99.90;;;;;;5044789;28;20033;-35
2022/10/01 07:00:26;;;;;;;3.33;2.97;;;13.70;99.90;;;;;;5044135;28;20058;-35
2022/10/01 07:02:53;;;;;;;3.30;3.10;;;13.80;99.90;;;;;;5044218;28;20110;-35
2022/10/01 07:05:18;;;;;;;3.50;3.20;;;13.80;99.90;;;;;;5043554;28;20025;-35
2022/10/01 07:07:44;;;;;;;3.92;3.63;;;13.90;99.90;;;;;;5044224;28;20380;-35
2022/10/01 07:10:11;;;;;;;4.00;3.40;;;14.00;99.90;;;;;;5045224;28;20033;-34
2022/10/01 07:12:38;;;;;;;3.85;3.55;;;14.00;99.90;;;;;;5048781;28;20075;-34
2022/10/01 07:15:05;;;;;;;4.13;3.83;;;14.00;99.90;;;;;;5048523;28;20403;-34
2022/10/01 07:17:31;;;;;;;4.57;4.18;;;14.00;99.90;;;;;;5047289;28;20531;-35
2022/10/01 07:19:57;;;;;;;4.43;4.13;;;14.10;99.90;;;;;;5047676;28;20036;-35
2022/10/01 07:22:24;;;;;;;3.35;3.10;;;14.20;99.90;;;;;;5047767;28;20028;-35
2022/10/01 07:24:50;;;;;;;3.53;3.22;;;14.20;99.90;;;;;;5046799;28;20103;-35
2022/10/01 07:27:16;;;;;;;3.63;3.40;;;14.20;99.90;;;;;;5047319;28;20162;-35
2022/10/01 07:29:41;;;;;;;4.75;4.35;;;14.30;99.90;;;;;;5047956;28;20107;-35
2022/10/01 07:32:09;;;;;;;6.20;4.45;;;14.30;99.90;;;;;;5046565;28;20141;-34
2022/10/01 07:34:38;;;;;;;5.10;4.53;;;14.40;99.90;;;;;;5047858;28;20048;-36
2022/10/01 07:37:05;;;;;;;5.75;5.22;;;14.40;99.90;;;;;;5046082;28;20021;-34
2022/10/01 07:39:31;;;;;;;5.45;5.05;;;14.40;99.90;;;;;;5047971;28;20029;-37
2022/10/01 07:41:57;;;;;;;5.00;4.55;;;14.50;99.90;;;;;;5045001;28;20036;-37
2022/10/01 07:44:23;;;;;;;5.65;5.15;;;14.50;99.90;;;;;;5045377;28;20476;-36
2022/10/01 07:46:49;;;;;;;5.68;5.18;;;14.60;99.90;;;;;;5046457;28;20144;-35
2022/10/01 07:49:15;;;;;;;6.20;5.00;;;14.60;99.90;;;;;;5046064;28;20031;-35
2022/10/01 07:51:42;;;;;;;4.80;4.47;;;14.70;99.90;;;;;;5045241;28;20056;-36
2022/10/01 07:54:08;;;;;;;5.18;4.55;;;14.70;99.90;;;;;;5046470;28;20040;-36
2022/10/01 07:56:34;;;;;;;7.15;5.50;;;14.80;99.90;;;;;;5045569;28;20037;-36
2022/10/01 07:59:00;;;;;;;5.18;4.78;;;14.90;99.90;;;;;;5046089;28;20031;-37
2022/10/01 08:01:26;;;;;;;7.10;5.60;;;14.90;99.90;;;;;;5045814;28;20447;-37
2022/10/01 08:03:52;;;;;;;4.80;4.40;;;14.90;99.90;;;;;;5046930;28;20459;-35
2022/10/01 08:06:19;;;;;;;6.13;5.63;;;15.00;99.90;;;;;;5044708;28;20056;-37
2022/10/01 08:08:45;;;;;;;6.15;5.60;;;15.00;99.90;;;;;;5046613;28;20488;-37
2022/10/01 08:11:13;;;;;;;5.90;5.30;;;15.10;99.90;;;;;;5045950;28;20025;-37
2022/10/01 08:13:40;;;;;;;5.28;4.78;;;15.20;99.90;;;;;;5045762;28;20033;-36
2022/10/01 08:16:08;;;;;;;6.20;5.60;;;15.20;99.90;;;;;;5046534;28;20437;-36
2022/10/01 08:18:34;;;;;;;6.30;5.05;;;15.30;99.90;;;;;;5046220;28;20032;-35
2022/10/01 08:21:02;;;;;;;6.90;5.63;;;15.30;99.90;;;;;;5044364;28;20373;-35
2022/10/01 08:23:31;;;;;;;6.72;5.78;;;15.20;99.90;;;;;;5045758;28;20036;-35
2022/10/01 08:26:03;;;;;;;6.93;5.85;;;15.20;99.90;;;;;;5046201;28;20033;-37
2022/10/01 08:28:29;;;;;;;6.60;6.00;;;15.30;99.90;;;;;;5044480;28;20029;-36
2022/10/01 08:30:55;;;;;;;8.50;7.07;;;15.30;99.90;;;;;;5045572;28;20056;-36
2022/10/01 08:33:21;;;;;;;8.27;6.05;;;15.40;99.90;;;;;;5043632;28;20863;-36
2022/10/01 08:35:46;;;;;;;7.85;6.72;;;15.40;99.90;;;;;;5046715;28;20523;-37
2022/10/01 08:38:12;;;;;;;6.03;5.43;;;15.40;99.90;;;;;;5045923;28;20033;-37
2022/10/01 08:41:00;;;;;;;8.43;5.10;;;15.50;99.90;;;;;;5043634;28;20171;-37
2022/10/01 08:43:40;;;;;;;6.13;5.53;;;15.50;99.90;;;;;;5044427;28;20025;-36
2022/10/01 08:46:15;;;;;;;5.65;5.13;;;15.50;99.90;;;;;;5046221;28;20032;-36
2022/10/01 08:49:01;;;;;;;5.72;5.22;;;15.60;99.90;;;;;;5045061;28;20465;-36
2022/10/01 08:51:46;;;;;;;4.78;4.22;;;15.70;99.90;;;;;;5025060;28;20029;-38
2022/10/01 08:54:27;;;;;;;5.22;4.72;;;16.00;99.90;;;;;;5041498;28;20051;-36
2022/10/01 08:56:55;;;;;;;4.47;4.07;;;16.20;99.90;;;;;;5045268;28;20163;-37
2022/10/01 08:59:34;;;;;;;5.00;4.07;;;16.20;99.90;;;;;;5043161;28;20097;-36
2022/10/01 09:01:59;;;;;;;3.75;3.45;;;16.20;99.90;;;;;;5044886;28;20522;-36
2022/10/01 09:04:26;;;;;;;4.68;3.60;;;16.10;99.90;;;;;;5044232;28;20049;-36
2022/10/01 09:07:08;;;;;;;6.68;3.70;;;16.10;99.90;;;;;;5045290;28;20025;-37
2022/10/01 09:09:50;;;;;;;3.70;3.40;;;15.90;99.90;;;;;;5044807;28;20032;-36
2022/10/01 09:12:29;;;;;;;3.17;2.97;;;15.80;99.90;;;;;;5024458;28;20029;-35
2022/10/01 09:15:34;;;;;;;4.72;3.50;;;15.70;99.90;;;;;;5041596;28;20045;-36
2022/10/01 09:18:02;;;;;;;4.25;3.30;;;15.60;99.90;;;;;;5045967;28;20044;-39
2022/10/01 09:20:47;;;;;;;6.30;4.20;;;15.60;99.90;;;;;;5044253;28;20116;-35
2022/10/01 09:23:21;;;;;;;6.82;4.60;;;15.50;99.90;;;;;;5043404;28;20045;-36
2022/10/01 09:25:49;;;;;;;6.78;4.45;;;15.40;99.90;;;;;;5045563;28;20443;-36
2022/10/01 09:28:26;;;;;;;6.22;3.97;;;15.40;99.90;;;;;;5044898;28;20031;-35
2022/10/01 09:31:10;;;;;;;4.22;3.03;;;15.30;99.90;;;;;;5043378;28;20040;-36
2022/10/01 09:33:40;;;;;;;3.63;2.85;;;15.10;99.90;;;;;;5044399;28;20120;-36
2022/10/01 09:36:32;;;;;;;3.40;2.83;;;15.10;99.90;;;;;;5051391;28;20128;-36
2022/10/01 09:39:13;;;;;;;4.22;2.80;;;15.00;99.90;;;;;;5027111;28;20018;-36
2022/10/01 09:41:39;;;;;;;5.63;3.38;;;15.00;99.90;;;;;;5044468;28;20032;-35
2022/10/01 09:44:15;;;;;;;4.28;2.45;;;15.00;99.90;;;;;;5044659;28;20087;-35
2022/10/01 09:46:41;;;;;;;5.95;3.22;;;15.00;99.90;;;;;;5041950;28;20540;-36
2022/10/01 09:49:23;;;;;;;5.45;2.17;;;15.10;99.90;;;;;;5043455;28;20051;-36
2022/10/01 09:51:56;;;;;;;5.32;2.53;;;15.20;99.90;;;;;;5035170;28;20026;-36
2022/10/01 09:54:41;;;;;;;3.20;1.55;;;15.40;99.90;;;;;;5025431;28;20120;-36
2022/10/01 09:57:19;;;;;;;4.05;1.40;;;15.60;99.90;;;;;;5043346;28;20033;-36
2022/10/01 10:00:13;;;;;;;4.93;1.40;;;15.70;99.90;;;;;;5043746;28;20098;-36
2022/10/01 10:02:47;;;;;;;4.18;1.63;;;15.70;99.90;;;;;;5035136;28;20349;-37
2022/10/01 10:05:16;;;;;;;5.32;1.50;;;15.70;99.90;;;;;;5043881;28;20464;-35
2022/10/01 10:07:50;;;;;;;4.65;1.50;;;15.60;99.90;;;;;;5033994;28;20053;-35
2022/10/01 10:10:38;;;;;;;7.60;2.13;;;15.50;99.90;;;;;;5043401;28;20206;-35
2022/10/01 10:13:25;;;;;;;3.20;1.40;;;15.50;99.90;;;;;;5034669;28;20025;-35
2022/10/01 10:15:57;;;;;;;2.03;1.10;;;15.50;99.90;;;;;;5044525;28;20727;-35
2022/10/01 10:18:29;;;;;;;3.88;1.33;;;15.60;99.90;;;;;;5043890;28;20096;-35
2022/10/01 10:20:58;;;;;;;3.45;0.95;;;15.70;99.90;;;;;;5043082;28;20123;-35
2022/10/01 10:23:30;;;;;;;5.95;1.30;;;15.90;99.90;;;;;;5044036;28;20029;-35
2022/10/01 10:25:59;;;;;;;;;;;16.00;99.90;;;;;;5043298;28;20028;-36
2022/10/01 10:28:26;;;;;;;5.78;1.27;;;16.10;99.90;;;;;;5044034;28;19908;-36
2022/10/01 10:30:54;;;;;;;3.97;1.45;;;16.20;99.90;;;;;;5044568;28;20036;-36
2022/10/01 10:33:21;;;;;;;5.72;1.30;;;16.30;99.90;;;;;;5041604;28;20106;-37
2022/10/01 10:36:00;;;;;;;7.25;1.73;;;16.40;99.90;;;;;;5043134;28;20021;-36
2022/10/01 10:38:31;;;;;;;5.80;1.50;;;16.60;99.90;;;;;;5041128;28;20025;-36
2022/10/01 10:40:56;;;;;;;5.93;1.50;;;16.70;99.90;;;;;;5043632;28;20029;-36
2022/10/01 10:43:25;;;;;;;5.88;1.70;;;16.80;99.90;;;;;;5043044;28;20027;-37
2022/10/01 10:45:54;;;;;;;7.32;1.40;;;16.80;99.90;;;;;;5048634;28;20025;-36
2022/10/01 10:48:23;;;;;;;6.57;2.05;;;16.80;99.90;;;;;;5047058;28;20443;-36
2022/10/01 10:50:56;;;;;;;7.65;1.80;;;16.80;99.90;;;;;;5047952;28;20040;-39
2022/10/01 10:53:24;;;;;;;6.63;1.60;;;16.80;99.90;;;;;;5047694;28;20068;-37
2022/10/01 10:56:02;;;;;;;6.90;1.63;;;16.70;99.90;;;;;;5047327;28;20419;-36
2022/10/01 10:58:33;;;;;;;9.05;1.80;;;16.60;99.90;;;;;;5047672;28;20029;-36
2022/10/01 11:01:04;;;;;;;5.60;1.48;;;16.50;99.90;;;;;;5047596;28;20021;-35
2022/10/01 11:03:32;;;;;;;7.90;1.60;;;16.40;99.90;;;;;;5047465;28;20056;-35
2022/10/01 11:06:07;;;;;;;9.95;1.58;;;16.30;99.90;;;;;;5047600;28;20052;-34
2022/10/01 11:08:34;;;;;;;7.55;2.03;;;16.10;99.90;;;;;;5047293;28;20036;-35
2022/10/01 11:11:12;;;;;;;10.55;2.03;;;16.00;99.90;;;;;;5047918;28;20143;-35
2022/10/01 11:14:07;;;;;;;10.15;1.95;;;15.90;99.90;;;;;;5048409;28;20488;-35
2022/10/01 11:16:50;;;;;;;9.15;2.00;;;15.80;99.90;;;;;;5025567;28;20033;-35
2022/10/01 11:19:30;;;;;;;10.00;1.67;;;15.80;99.90;;;;;;5044512;28;20060;-35
2022/10/01 11:22:22;;;;;;;8.90;1.65;;;15.70;99.90;;;;;;5038197;28;20086;-36
2022/10/01 11:25:07;;;;;;;7.07;1.45;;;15.70;99.90;;;;;;5047058;28;20534;-36
2022/10/01 11:27:41;;;;;;;9.57;1.77;;;15.70;99.90;;;;;;5048088;28;20072;-36
2022/10/01 11:30:23;;;;;;;7.95;1.90;;;15.80;99.90;;;;;;5044809;28;20544;-36
2022/10/01 11:32:52;;;;;;;11.73;2.30;;;15.90;99.90;;;;;;5045953;28;20013;-35
2022/10/01 11:35:41;;;;;;;5.97;1.58;;;16.10;99.90;;;;;;5047222;28;20275;-35
2022/10/01 11:38:24;;;;;;;7.97;2.05;;;16.20;99.90;;;;;;5046073;28;20384;-35
2022/10/01 11:41:08;;;;;;;8.27;1.80;;;16.30;99.90;;;;;;5036658;28;20056;-36
2022/10/01 11:43:38;;;;;;;9.18;1.80;;;16.30;99.90;;;;;;5046814;28;20044;-35
2022/10/01 11:46:20;;;;;;;7.95;1.92;;;16.40;99.90;;;;;;5047721;28;20111;-35
2022/10/01 11:49:15;;;;;;;8.23;1.80;;;16.50;99.90;;;;;;5047541;28;20017;-35
2022/10/01 11:51:48;;;;;;;11.50;2.30;;;16.60;99.90;;;;;;5046704;28;20063;-35
2022/10/01 11:54:20;;;;;;;8.38;1.50;;;16.50;99.90;;;;;;5046997;28;20044;-36
2022/10/01 11:59:42;;;;;;;9.43;1.98;;;16.30;99.90;;;;;;5046593;28;20124;-37
2022/10/01 12:02:25;;;;;;;10.38;1.77;;;16.20;99.90;;;;;;5046393;28;20025;-36
2022/10/01 12:04:57;;;;;;;6.50;1.70;;;16.30;99.90;;;;;;5046574;28;20040;-36
2022/10/01 12:07:35;;;;;;;6.88;1.52;;;16.30;99.90;;;;;;5046414;28;20055;-36
2022/10/01 12:10:17;;;;;;;6.90;1.63;;;16.40;99.90;;;;;;5046790;28;20060;-37
2022/10/01 12:12:48;;;;;;;;;;;16.50;99.90;;;;;;5046920;28;20028;-36
2022/10/01 12:15:25;;;;;;;7.80;1.92;;;16.60;99.90;;;;;;5046578;28;20034;-36
2022/10/01 12:18:05;;;;;;;14.45;1.92;;;16.80;99.90;;;;;;5047090;28;20256;-37
2022/10/01 12:20:36;;;;;;;9.60;1.85;;;16.90;99.90;;;;;;5045965;28;20064;-36
2022/10/01 12:23:05;;;;;;;13.63;2.27;;;17.10;99.90;;;;;;5047475;28;20448;-36
2022/10/01 12:25:55;;;;;;;8.10;1.90;;;17.30;99.90;;;;;;5045548;28;20282;-36
2022/10/01 12:28:30;;;;;;;5.97;1.50;;;17.50;99.90;;;;;;5046316;28;20025;-36
2022/10/01 12:31:11;;;;;;;6.35;1.60;;;17.60;99.90;;;;;;5046339;28;20086;-38
2022/10/01 12:33:58;;;;;;;7.20;1.60;;;17.50;99.90;;;;;;5046030;28;20037;-36
2022/10/01 12:36:27;;;;;;;4.53;1.20;;;17.30;99.90;;;;;;5045866;28;20025;-37
2022/10/01 12:39:35;;;;;;;8.57;1.70;;;16.90;99.90;;;;;;5046001;28;20033;-35
2022/10/01 12:42:24;;;;;;;6.32;1.40;;;16.40;99.90;;;;;;5044426;28;20036;-36
2022/10/01 12:45:12;;;;;;;9.48;1.75;;;16.00;99.90;;;;;;5046658;28;20206;-36
2022/10/01 12:48:15;;;;;;;8.65;2.13;;;15.70;99.90;;;;;;5042528;28;20036;-36
2022/10/01 12:51:15;;;;;;;8.43;2.00;;;15.60;99.90;;;;;;5046296;28;20099;-36
2022/10/01 12:53:59;;;;;;;10.57;1.60;;;15.50;99.90;;;;;;5029773;28;20482;-40
2022/10/01 12:56:33;;;;;;;6.70;1.50;;;15.60;99.90;;;;;;5046010;28;20065;-36
2022/10/01 12:59:07;;;;;;;10.70;1.73;;;15.70;99.90;;;;;;5045998;28;20029;-36
2022/10/01 13:01:43;;;;;;;9.10;2.08;;;15.80;99.90;;;;;;5042010;28;20527;-36
2022/10/01 13:04:11;;;;;;;7.07;2.00;;;16.00;99.90;;;;;;5045720;28;20072;-36
2022/10/01 13:07:15;;;;;;;8.18;1.75;;;16.20;99.90;;;;;;5045041;28;20029;-34
2022/10/01 13:10:09;;;;;;;8.85;1.95;;;16.40;99.90;;;;;;5045111;28;20017;-36
2022/10/01 13:12:35;;;;;;;8.93;2.05;;;16.60;99.90;;;;;;5045635;28;20131;-34